createdAt,value
2023-03-21T00:00:27.449Z,100466.16
2023-03-21T00:03:31.879Z,100462.34
2023-03-21T00:06:36.372Z,100463.91
2023-03-21T00:09:39.059Z,100460.63
2023-03-21T00:12:42.795Z,100459.31
2023-03-21T00:16:04.207Z,100457.94
2023-03-21T00:19:10.508Z,100451.88
2023-03-21T00:22:13.133Z,100451.31
2023-03-21T00:25:16.121Z,100454.59
2023-03-21T00:28:18.822Z,100453.16
2023-03-21T00:31:21.773Z,100448.53
2023-03-21T00:34:36.485Z,100444.41
2023-03-21T00:37:46.723Z,100444.09
2023-03-21T00:40:50.108Z,100442.81
2023-03-21T00:43:55.726Z,100436.97
2023-03-21T00:47:07.570Z,100436.19
2023-03-21T00:50:12.012Z,100428.31
2023-03-21T00:53:15.453Z,100438.53
2023-03-21T00:56:18.317Z,100433.84
2023-03-21T00:59:21.434Z,100434.25
2023-03-21T01:02:26.923Z,100420.06
2023-03-21T04:39:01.605Z,100400.22
2023-03-21T04:42:05.348Z,100390.75
2023-03-21T04:49:50.141Z,100393.06
2023-03-21T04:52:53.140Z,100387.31
2023-03-21T04:55:57.655Z,100390.88
2023-03-21T04:59:03.785Z,100390.75
2023-03-21T05:02:06.805Z,100389.59
2023-03-21T05:05:12.004Z,100396.97
2023-03-21T05:08:15.685Z,100389.97
2023-03-21T05:11:18.769Z,100400.22
2023-03-21T05:14:24.502Z,100399.50
2023-03-21T05:17:28.558Z,100410.19
2023-03-21T05:20:32.050Z,100407.28
2023-03-21T05:23:42.159Z,100404.62
2023-03-21T05:26:50.503Z,100411.66
2023-03-21T05:29:53.679Z,100403.41
2023-03-21T05:32:56.506Z,100405.78
2023-03-21T05:35:59.947Z,100410.09
2023-03-21T05:39:05.162Z,100407.44
2023-03-21T05:42:10.299Z,100414.19
2023-03-21T05:45:14.248Z,100413.97
2023-03-21T05:48:17.663Z,100417.25
2023-03-21T05:51:25.416Z,100419.44
2023-03-21T05:54:28.483Z,100423.84
2023-03-21T05:57:35.073Z,100426.50
2023-03-21T06:00:38.386Z,100419.03
2023-03-21T06:03:42.570Z,100415.50
2023-03-21T06:06:46.082Z,100423.28
2023-03-21T06:09:49.602Z,100423.59
2023-03-21T06:12:52.696Z,100414.16
2023-03-21T06:15:57.025Z,100411.38
2023-03-21T06:19:00.673Z,100406.47
2023-03-21T06:22:04.751Z,100421.03
2023-03-21T06:25:08.294Z,100420.97
2023-03-21T06:28:11.479Z,100420.81
2023-03-21T06:31:14.968Z,100437.69
2023-03-21T06:34:19.010Z,100433.78
2023-03-21T06:37:21.748Z,100429.09
2023-03-21T06:40:25.036Z,100420.72
2023-03-21T06:43:28.499Z,100430.50
2023-03-21T06:46:35.096Z,100428.53
2023-03-21T06:49:38.766Z,100426.72
2023-03-21T06:52:42.932Z,100428.94
2023-03-21T06:55:49.665Z,100427.78
2023-03-21T06:58:52.960Z,100427.19
2023-03-21T07:01:57.825Z,100430.69
2023-03-21T07:05:01.710Z,100432.59
2023-03-21T07:08:05.420Z,100434.66
2023-03-21T07:11:09.774Z,100438.84
2023-03-21T07:14:12.376Z,100452.50
2023-03-21T07:17:15.542Z,100443.94
2023-03-21T07:20:18.546Z,100442.50
2023-03-21T07:23:23.534Z,100443.94
2023-03-21T07:26:26.395Z,100442.53
2023-03-21T07:29:29.660Z,100440.09
2023-03-21T07:32:33.924Z,100442.53
2023-03-21T07:35:38.528Z,100428.06
2023-03-21T07:38:43.682Z,100442.38
2023-03-21T07:41:46.698Z,100435.66
2023-03-21T07:44:55.141Z,100444.75
2023-03-21T07:47:58.663Z,100438.44
2023-03-21T07:51:02.389Z,100451.53
2023-03-21T07:54:05.852Z,100442.06
2023-03-21T07:57:08.875Z,100444.84
2023-03-21T08:00:13.865Z,100453.13
2023-03-21T08:03:18.283Z,100455.13
2023-03-21T08:06:21.099Z,100444.16
2023-03-21T08:09:24.204Z,100450.84
2023-03-21T08:12:27.022Z,100449.97
2023-03-21T08:15:30.367Z,100462.59
2023-03-21T08:18:33.204Z,100457.16
2023-03-21T08:21:36.232Z,100451.63
2023-03-21T08:24:38.893Z,100455.97
2023-03-21T08:27:43.821Z,100446.91
2023-03-21T08:30:46.952Z,100456.78
2023-03-21T08:33:56.958Z,100450.84
2023-03-21T08:37:01.096Z,100450.44
2023-03-21T08:40:11.479Z,100450.75
2023-03-21T08:43:14.900Z,100445.59
2023-03-21T08:46:17.988Z,100453.91
2023-03-21T08:49:21.344Z,100436.56
2023-03-21T08:52:24.290Z,100453.03
2023-03-21T08:55:27.032Z,100448.69
2023-03-21T08:58:30.247Z,100447.13
2023-03-21T09:01:33.625Z,100450.94
2023-03-21T09:04:36.747Z,100460.28
2023-03-21T09:07:44.363Z,100465.56
2023-03-21T09:10:48.973Z,100461.09
2023-03-21T09:13:52.866Z,100459.59
2023-03-21T09:16:56.193Z,100460.19
2023-03-21T09:20:01.702Z,100470.22
2023-03-21T09:23:04.765Z,100458.38
2023-03-21T09:26:10.845Z,100466.16
2023-03-21T09:29:15.982Z,100462.28
2023-03-21T09:32:18.893Z,100463.28
2023-03-21T09:35:22.076Z,100465.66
2023-03-21T09:38:30.386Z,100462.81
2023-03-21T09:42:03.692Z,100457.28
2023-03-21T09:45:31.934Z,100455.09
2023-03-21T09:48:46.947Z,100446.47
2023-03-21T09:51:59.842Z,100444.75
2023-03-21T09:55:18.813Z,100446.28
2023-03-21T09:58:40.496Z,100430.84
2023-03-21T10:01:46.102Z,100451.44
2023-03-21T10:04:49.553Z,100447.50
2023-03-21T10:07:55.017Z,100438.22
2023-03-21T10:11:12.029Z,100428.31
2023-03-21T10:14:36.339Z,100421.16
2023-03-21T10:17:47.770Z,100422.78
2023-03-21T10:20:52.046Z,100412.44
2023-03-21T10:23:57.478Z,100413.22
2023-03-21T10:27:03.116Z,100413.41
2023-03-21T10:30:08.172Z,100410.56
2023-03-21T10:33:17.141Z,100405.06
2023-03-21T10:36:29.434Z,100398.78
2023-03-21T10:39:37.643Z,100398.91
2023-03-21T10:42:42.979Z,100404.31
2023-03-21T10:45:47.423Z,100394.25
2023-03-21T10:48:55.829Z,100388.59
2023-03-21T10:52:03.539Z,100401.78
2023-03-21T10:55:12.487Z,100390.44
2023-03-21T10:58:25.094Z,100390.16
2023-03-21T11:01:43.138Z,100375.34
2023-03-21T11:04:46.408Z,100379.75
2023-03-21T11:07:59.508Z,100382.81
2023-03-21T11:11:08.805Z,100377.25
2023-03-21T11:14:41.878Z,100376.22
2023-03-21T11:17:45.539Z,100363.66
2023-03-21T11:20:54.815Z,100352.69
2023-03-21T11:23:57.651Z,100357.84
2023-03-21T11:27:01.721Z,100370.44
2023-03-21T11:30:05.434Z,100354.31
2023-03-21T11:33:08.946Z,100353.09
2023-03-21T11:36:20.914Z,100359.44
2023-03-21T11:39:26.892Z,100346.84
2023-03-21T11:42:41.480Z,100345.97
2023-03-21T11:45:58.098Z,100330.47
2023-03-21T11:49:01.524Z,100332.75
2023-03-21T11:52:13.622Z,100328.81
2023-03-21T11:55:25.281Z,100333.09
2023-03-21T11:58:44.057Z,100327.81
2023-03-21T12:02:15.025Z,100326.72
2023-03-21T12:05:23.252Z,100318.28
2023-03-21T12:08:46.175Z,100305.91
2023-03-21T12:11:55.507Z,100288.31
2023-03-21T12:15:18.310Z,100296.06
2023-03-21T12:18:57.253Z,100294.59
2023-03-21T12:22:15.419Z,100300.31
2023-03-21T12:25:30.445Z,100289.38
2023-03-21T12:29:22.735Z,100286.81
2023-03-21T12:32:41.123Z,100289.06
2023-03-21T12:36:08.250Z,100284.69
2023-03-21T12:39:25.009Z,100281.37
2023-03-21T12:42:34.655Z,100280.47
2023-03-21T12:45:47.658Z,100274.28
2023-03-21T12:48:52.939Z,100277.22
2023-03-21T12:52:03.491Z,100268.78
2023-03-21T12:55:11.899Z,100264.56
2023-03-21T12:58:19.875Z,100252.78
2023-03-21T13:01:23.322Z,100255.09
2023-03-21T13:05:01.474Z,100247.94
2023-03-21T13:08:18.458Z,100236.25
2023-03-21T13:11:24.966Z,100224.31
2023-03-21T13:14:34.980Z,100231.28
2023-03-21T13:17:45.901Z,100223.28
2023-03-21T13:21:21.558Z,100228.13
2023-03-21T13:24:48.595Z,100237.78
2023-03-21T13:28:01.111Z,100229.81
2023-03-21T13:31:22.366Z,100234.66
2023-03-21T13:34:27.930Z,100234.94
2023-03-21T13:37:39.148Z,100231.81
2023-03-21T13:41:13.025Z,100234.53
2023-03-21T13:44:22.314Z,100222.19
2023-03-21T13:47:37.675Z,100228.81
2023-03-21T13:50:54.804Z,100225.19
2023-03-21T13:54:04.540Z,100226.41
2023-03-21T13:57:38.346Z,100226.91
2023-03-21T14:00:41.371Z,100217.66
2023-03-21T14:04:06.784Z,100218.44
2023-03-21T14:07:22.986Z,100211.78
2023-03-21T14:10:33.753Z,100209.38
2023-03-21T14:13:48.306Z,100207.91
2023-03-21T14:16:54.231Z,100188.31
2023-03-21T14:20:11.845Z,100206.94
2023-03-21T14:23:17.543Z,100196.22
2023-03-21T14:26:20.591Z,100195.75
2023-03-21T14:29:31.944Z,100186.88
2023-03-21T14:32:36.056Z,100196.09
2023-03-21T14:35:41.868Z,100182.78
2023-03-21T14:38:58.738Z,100189.56
2023-03-21T14:42:11.870Z,100198.38
2023-03-21T14:45:17.513Z,100195.34
2023-03-21T14:48:33.578Z,100181.75
2023-03-21T14:51:36.227Z,100174.66
2023-03-21T14:54:45.336Z,100176.63
2023-03-21T14:57:48.735Z,100181.09
2023-03-21T15:00:55.153Z,100182.34
2023-03-21T15:04:00.588Z,100175.81
2023-03-21T15:07:05.387Z,100174.19
2023-03-21T15:10:17.404Z,100178.44
2023-03-21T15:13:23.563Z,100169.66
2023-03-21T15:16:26.203Z,100168.78
2023-03-21T15:19:33.757Z,100172.63
2023-03-21T15:22:44.868Z,100170.16
2023-03-21T15:25:48.032Z,100174.84
2023-03-21T15:28:57.302Z,100179.75
2023-03-21T15:32:05.213Z,100162.03
2023-03-21T15:35:16.116Z,100168.81
2023-03-21T15:38:40.481Z,100163.00
2023-03-21T15:42:00.726Z,100163.06
2023-03-21T15:45:20.848Z,100153.66
2023-03-21T15:48:28.854Z,100165.94
2023-03-21T15:51:32.744Z,100156.22
2023-03-21T15:54:45.485Z,100150.19
2023-03-21T15:57:50.147Z,100168.31
2023-03-21T16:01:00.626Z,100166.56
2023-03-21T16:04:13.351Z,100175.78
2023-03-21T16:07:17.423Z,100164.00
2023-03-21T16:10:33.723Z,100174.34
2023-03-21T16:13:36.362Z,100171.72
2023-03-21T16:16:39.642Z,100179.34
2023-03-21T16:19:43.436Z,100172.34
2023-03-21T16:22:47.559Z,100178.34
2023-03-21T16:25:56.041Z,100181.12
2023-03-21T16:28:59.634Z,100183.31
2023-03-21T16:32:06.230Z,100185.69
2023-03-21T16:35:09.627Z,100187.81
2023-03-21T16:38:12.905Z,100190.66
2023-03-21T16:41:16.789Z,100195.84
2023-03-21T16:44:20.346Z,100195.19
2023-03-21T16:47:24.306Z,100191.72
2023-03-21T16:50:33.246Z,100196.50
2023-03-21T16:53:36.480Z,100198.56
2023-03-21T16:56:42.963Z,100197.84
2023-03-21T16:59:47.276Z,100199.47
2023-03-21T17:02:55.028Z,100205.06
2023-03-21T17:05:58.132Z,100210.66
2023-03-21T17:09:01.742Z,100200.44
2023-03-21T17:12:10.315Z,100203.63
2023-03-21T17:15:13.714Z,100206.78
2023-03-21T17:18:16.757Z,100188.69
2023-03-21T17:21:22.372Z,100206.78
2023-03-21T17:24:26.466Z,100202.87
2023-03-21T17:27:29.459Z,100207.94
2023-03-21T17:30:35.630Z,100211.50
2023-03-21T17:33:38.299Z,100214.63
2023-03-21T17:36:42.925Z,100215.38
2023-03-21T17:39:46.212Z,100218.03
2023-03-21T17:42:50.353Z,100220.78
2023-03-21T17:45:53.081Z,100201.03
2023-03-21T17:48:56.947Z,100216.34
2023-03-21T17:52:00.440Z,100219.44
2023-03-21T17:55:04.297Z,100230.72
2023-03-21T17:58:07.132Z,100229.88
2023-03-21T18:01:10.584Z,100226.69
2023-03-21T18:04:13.870Z,100234.09
2023-03-21T18:07:29.741Z,100231.28
2023-03-21T18:10:40.947Z,100231.53
2023-03-21T18:13:45.296Z,100240.94
2023-03-21T18:16:50.179Z,100236.25
2023-03-21T18:19:53.865Z,100240.22
2023-03-21T18:22:56.969Z,100241.06
2023-03-21T18:25:59.984Z,100244.16
2023-03-21T18:30:00.372Z,100241.84
2023-03-21T18:32:27.242Z,100246.12
2023-03-21T18:35:30.424Z,100246.75
2023-03-21T18:38:33.580Z,100248.16
2023-03-21T18:41:37.097Z,100254.28
2023-03-21T18:44:45.535Z,100254.81
2023-03-21T18:47:49.390Z,100255.41
2023-03-21T18:50:52.822Z,100258.50
2023-03-21T18:53:55.836Z,100241.22
2023-03-21T18:57:35.033Z,100257.63
2023-03-21T19:00:23.572Z,100260.03
2023-03-21T19:03:36.707Z,100242.66
2023-03-21T19:06:41.418Z,100258.66
2023-03-21T19:10:09.520Z,100261.13
2023-03-21T19:13:09.980Z,100258.88
2023-03-21T19:16:13.472Z,100252.75
2023-03-21T19:19:19.062Z,100255.53
2023-03-21T19:22:21.990Z,100262.47
2023-03-21T19:25:26.111Z,100257.63
2023-03-21T19:28:29.107Z,100258.19
2023-03-21T19:31:32.751Z,100262.38
2023-03-21T19:34:36.875Z,100261.34
2023-03-21T19:37:40.097Z,100271.59
2023-03-21T19:40:44.719Z,100259.34
2023-03-21T19:43:54.752Z,100268.78
2023-03-21T19:46:58.432Z,100275.94
2023-03-21T19:53:24.330Z,100275.72
2023-03-21T19:56:28.024Z,100276.75
2023-03-21T19:59:32.161Z,100274.19
2023-03-21T20:02:36.916Z,100276.56
2023-03-21T20:05:40.781Z,100280.59
2023-03-21T20:09:24.047Z,100275.63
2023-03-21T20:12:07.607Z,100282.34
2023-03-21T20:15:17.645Z,100284.59
2023-03-21T20:18:24.161Z,100294.37
2023-03-21T20:21:34.883Z,100291.13
2023-03-21T20:24:44.440Z,100289.84
2023-03-21T20:27:47.494Z,100292.56
2023-03-21T20:30:54.290Z,100286.34
2023-03-21T20:33:57.220Z,100293.34
2023-03-21T20:37:01.184Z,100295.53
2023-03-21T20:40:12.391Z,100287.47
2023-03-21T20:44:08.812Z,100293.16
2023-03-21T20:46:38.519Z,100300.41
2023-03-21T20:49:41.871Z,100292.84
2023-03-21T20:53:06.830Z,100294.13
2023-03-21T20:56:07.931Z,100305.00
2023-03-21T20:59:23.160Z,100298.94
2023-03-21T21:02:28.389Z,100300.03
2023-03-21T21:05:34.985Z,100300.03
2023-03-21T21:08:39.100Z,100308.56
2023-03-21T21:12:06.603Z,100307.47
2023-03-21T21:15:07.311Z,100306.88
2023-03-21T21:18:10.361Z,100301.94
2023-03-21T21:21:14.149Z,100305.44
2023-03-21T21:24:16.743Z,100300.56
2023-03-21T21:27:20.099Z,100301.72
2023-03-21T21:30:23.252Z,100305.37
2023-03-21T21:33:29.152Z,100298.19
2023-03-21T21:36:31.844Z,100300.06
2023-03-21T21:39:38.698Z,100298.41
2023-03-21T21:42:44.935Z,100292.22
2023-03-21T21:45:48.846Z,100297.75
2023-03-21T21:48:51.643Z,100302.47
2023-03-21T21:51:56.368Z,100301.69
2023-03-21T21:54:58.972Z,100302.31
2023-03-21T21:58:02.803Z,100309.97
2023-03-21T22:01:06.317Z,100305.22
2023-03-21T22:04:11.383Z,100307.87
2023-03-21T22:07:14.464Z,100309.53
2023-03-21T22:10:18.748Z,100301.53
2023-03-21T22:13:21.722Z,100302.03
2023-03-21T22:16:24.787Z,100305.31
2023-03-21T22:19:27.732Z,100308.75
2023-03-21T22:22:30.769Z,100303.56
2023-03-21T22:25:33.362Z,100304.31
2023-03-21T22:28:40.164Z,100303.00
2023-03-21T22:31:44.202Z,100312.94
2023-03-21T22:34:47.100Z,100305.63
2023-03-21T22:37:49.664Z,100309.69
2023-03-21T22:41:00.015Z,100313.69
2023-03-21T22:44:02.604Z,100318.19
2023-03-21T22:47:08.145Z,100318.00
2023-03-21T22:50:11.277Z,100319.78
2023-03-21T22:53:14.650Z,100320.12
2023-03-21T22:56:17.474Z,100323.56
2023-03-21T22:59:20.783Z,100312.28
2023-03-21T23:02:23.922Z,100316.00
2023-03-21T23:05:27.206Z,100306.22
2023-03-21T23:08:30.580Z,100301.63
2023-03-21T23:11:33.556Z,100308.94
2023-03-21T23:14:36.183Z,100305.78
2023-03-21T23:17:39.206Z,100310.97
2023-03-21T23:20:42.287Z,100306.81
2023-03-21T23:23:49.823Z,100316.53
2023-03-21T23:26:52.806Z,100311.84
2023-03-21T23:29:56.991Z,100302.94
2023-03-21T23:32:59.563Z,100309.25
2023-03-21T23:36:03.518Z,100302.75
2023-03-21T23:39:07.266Z,100304.72
2023-03-21T23:42:10.988Z,100300.22
2023-03-21T23:45:13.710Z,100298.75
2023-03-21T23:48:16.692Z,100310.12
2023-03-21T23:51:19.502Z,100303.97
2023-03-21T23:54:22.478Z,100306.78
2023-03-21T23:57:25.212Z,100299.75
